Pence, Wisconsin
Current Conditions -  °F | °C
As of 7:55 AM on Thursday 23 Oct 2014 (Local Time) from KIWD Reporting Station
Overcast Overcast  
Wind Chill: 44°   Ceiling: 2000
Heat Index: 46°   Visibility: 10mi
Dew Point: 39°   Wind: 5mph
Humidity: 76%   Direction: 190°S
Pressure: 29.99"   Gusts: NA
Location:  46.3634°N, 90.2665°W
Report Text: KIWD 231255Z AUTO 19004KT 10SM OVC020 08/04 A2999 RMK AO1
Loading
Personal Weather Stations






























Interactive Weather Map
Tropical Storm Tracking
New forecast layout! Learn more

10-Day Weather Forecast

Advertisements
Track Severe Weather on mobile